sensor_id;sensor_type;location;lat;lon;timestamp;pressure;altitude;pressure_sealevel;temperature;humidity
72857;BME280;62742;52.136;4.500;2023-06-24T00:01:01;102501.53;;;18.41;72.07
72857;BME280;62742;52.136;4.500;2023-06-24T00:03:27;102501.78;;;18.28;72.58
72857;BME280;62742;52.136;4.500;2023-06-24T00:05:54;102497.50;;;18.23;72.90
72857;BME280;62742;52.136;4.500;2023-06-24T00:08:23;102498.63;;;18.11;73.31
72857;BME280;62742;52.136;4.500;2023-06-24T00:10:50;102503.69;;;18.23;73.02
72857;BME280;62742;52.136;4.500;2023-06-24T00:13:17;102500.31;;;18.13;73.54
72857;BME280;62742;52.136;4.500;2023-06-24T00:15:43;102506.47;;;18.16;73.23
72857;BME280;62742;52.136;4.500;2023-06-24T00:18:10;102504.75;;;18.15;73.13
72857;BME280;62742;52.136;4.500;2023-06-24T00:20:37;102498.03;;;17.95;73.79
72857;BME280;62742;52.136;4.500;2023-06-24T00:23:05;102511.94;;;18.09;73.09
72857;BME280;62742;52.136;4.500;2023-06-24T00:25:32;102514.00;;;17.95;73.96
72857;BME280;62742;52.136;4.500;2023-06-24T00:27:59;102514.44;;;17.70;74.73
72857;BME280;62742;52.136;4.500;2023-06-24T00:30:26;102507.59;;;17.55;75.01
72857;BME280;62742;52.136;4.500;2023-06-24T00:32:53;102508.56;;;17.53;75.09
72857;BME280;62742;52.136;4.500;2023-06-24T00:35:20;102511.22;;;17.53;75.29
72857;BME280;62742;52.136;4.500;2023-06-24T00:37:46;102508.44;;;17.59;74.83
72857;BME280;62742;52.136;4.500;2023-06-24T00:40:13;102514.66;;;17.58;75.14
72857;BME280;62742;52.136;4.500;2023-06-24T00:42:44;102503.28;;;17.50;75.47
72857;BME280;62742;52.136;4.500;2023-06-24T00:45:12;102502.44;;;17.48;75.50
72857;BME280;62742;52.136;4.500;2023-06-24T00:47:39;102504.41;;;17.36;75.91
72857;BME280;62742;52.136;4.500;2023-06-24T00:50:06;102506.44;;;17.20;76.81
72857;BME280;62742;52.136;4.500;2023-06-24T00:52:34;102499.34;;;17.21;76.51
72857;BME280;62742;52.136;4.500;2023-06-24T00:55:03;102502.94;;;17.18;76.41
72857;BME280;62742;52.136;4.500;2023-06-24T00:57:31;102502.81;;;17.26;76.04
72857;BME280;62742;52.136;4.500;2023-06-24T00:59:59;102498.34;;;17.28;75.35
72857;BME280;62742;52.136;4.500;2023-06-24T01:02:26;102495.69;;;17.27;75.26
72857;BME280;62742;52.136;4.500;2023-06-24T01:04:54;102493.31;;;17.11;75.61
72857;BME280;62742;52.136;4.500;2023-06-24T01:07:21;102497.94;;;16.98;76.38
72857;BME280;62742;52.136;4.500;2023-06-24T01:09:48;102491.00;;;16.91;76.29
72857;BME280;62742;52.136;4.500;2023-06-24T01:12:15;102494.47;;;16.95;75.86
72857;BME280;62742;52.136;4.500;2023-06-24T01:14:42;102496.34;;;16.88;76.13
72857;BME280;62742;52.136;4.500;2023-06-24T01:17:14;102498.19;;;16.81;76.27
72857;BME280;62742;52.136;4.500;2023-06-24T01:20:08;102492.84;;;16.83;75.71
72857;BME280;62742;52.136;4.500;2023-06-24T01:42:53;102483.56;;;16.51;77.20
72857;BME280;62742;52.136;4.500;2023-06-24T01:45:28;102486.25;;;16.48;77.00
72857;BME280;62742;52.136;4.500;2023-06-24T01:48:19;102491.50;;;16.54;76.50
72857;BME280;62742;52.136;4.500;2023-06-24T01:51:09;102488.78;;;16.57;76.48
72857;BME280;62742;52.136;4.500;2023-06-24T01:53:41;102491.63;;;16.45;77.10
72857;BME280;62742;52.136;4.500;2023-06-24T01:56:12;102484.56;;;16.44;76.93
72857;BME280;62742;52.136;4.500;2023-06-24T01:58:42;102487.25;;;16.41;76.91
72857;BME280;62742;52.136;4.500;2023-06-24T02:01:13;102492.66;;;16.33;77.36
72857;BME280;62742;52.136;4.500;2023-06-24T02:03:42;102494.47;;;16.30;77.72
72857;BME280;62742;52.136;4.500;2023-06-24T02:06:10;102483.09;;;16.21;78.36
72857;BME280;62742;52.136;4.500;2023-06-24T02:08:40;102474.31;;;16.16;78.72
72857;BME280;62742;52.136;4.500;2023-06-24T02:11:09;102475.22;;;16.14;78.74
72857;BME280;62742;52.136;4.500;2023-06-24T02:13:38;102471.66;;;16.16;78.58
72857;BME280;62742;52.136;4.500;2023-06-24T02:16:08;102472.63;;;16.09;78.80
72857;BME280;62742;52.136;4.500;2023-06-24T02:18:38;102471.88;;;15.99;79.38
72857;BME280;62742;52.136;4.500;2023-06-24T02:21:09;102475.31;;;16.06;79.00
72857;BME280;62742;52.136;4.500;2023-06-24T02:23:38;102474.50;;;16.01;79.35
72857;BME280;62742;52.136;4.500;2023-06-24T02:26:06;102467.41;;;16.03;79.15
72857;BME280;62742;52.136;4.500;2023-06-24T02:28:34;102463.88;;;16.04;79.10
72857;BME280;62742;52.136;4.500;2023-06-24T02:31:02;102469.09;;;16.07;78.82
72857;BME280;62742;52.136;4.500;2023-06-24T02:33:29;102462.97;;;16.03;79.07
72857;BME280;62742;52.136;4.500;2023-06-24T02:35:56;102464.91;;;15.89;79.87
72857;BME280;62742;52.136;4.500;2023-06-24T02:38:22;102462.34;;;15.81;80.36
72857;BME280;62742;52.136;4.500;2023-06-24T02:40:51;102462.28;;;15.86;80.16
72857;BME280;62742;52.136;4.500;2023-06-24T02:43:18;102455.28;;;15.80;80.20
72857;BME280;62742;52.136;4.500;2023-06-24T02:45:46;102456.22;;;15.76;80.43
72857;BME280;62742;52.136;4.500;2023-06-24T02:48:15;102453.56;;;15.76;80.77
72857;BME280;62742;52.136;4.500;2023-06-24T02:50:44;102453.56;;;15.73;80.67
72857;BME280;62742;52.136;4.500;2023-06-24T02:53:12;102456.13;;;15.84;80.28
72857;BME280;62742;52.136;4.500;2023-06-24T02:55:41;102459.59;;;15.89;79.96
72857;BME280;62742;52.136;4.500;2023-06-24T02:58:09;102456.97;;;15.87;80.34
72857;BME280;62742;52.136;4.500;2023-06-24T03:00:37;102452.69;;;15.77;80.98
72857;BME280;62742;52.136;4.500;2023-06-24T03:03:05;102446.50;;;15.72;81.04
72857;BME280;62742;52.136;4.500;2023-06-24T03:05:32;102443.88;;;15.72;81.11
72857;BME280;62742;52.136;4.500;2023-06-24T03:08:01;102447.41;;;15.71;81.21
72857;BME280;62742;52.136;4.500;2023-06-24T03:10:29;102448.25;;;15.76;80.99
72857;BME280;62742;52.136;4.500;2023-06-24T03:12:56;102453.53;;;15.79;80.76
72857;BME280;62742;52.136;4.500;2023-06-24T03:15:22;102454.44;;;15.74;81.13
72857;BME280;62742;52.136;4.500;2023-06-24T03:17:50;102451.81;;;15.72;81.10
72857;BME280;62742;52.136;4.500;2023-06-24T03:20:17;102456.28;;;15.68;81.33
72857;BME280;62742;52.136;4.500;2023-06-24T03:22:43;102456.25;;;15.70;81.43
72857;BME280;62742;52.136;4.500;2023-06-24T03:25:10;102458.84;;;15.76;80.96
72857;BME280;62742;52.136;4.500;2023-06-24T03:27:36;102454.47;;;15.72;81.06
72857;BME280;62742;52.136;4.500;2023-06-24T03:30:03;102454.50;;;15.69;81.42
72857;BME280;62742;52.136;4.500;2023-06-24T03:32:29;102449.22;;;15.64;81.62
72857;BME280;62742;52.136;4.500;2023-06-24T03:34:56;102450.13;;;15.65;81.72
72857;BME280;62742;52.136;4.500;2023-06-24T03:37:22;102448.38;;;15.61;81.85
72857;BME280;62742;52.136;4.500;2023-06-24T03:39:49;102454.66;;;15.53;82.29
72857;BME280;62742;52.136;4.500;2023-06-24T03:42:15;102447.66;;;15.49;82.89
72857;BME280;62742;52.136;4.500;2023-06-24T03:44:41;102452.94;;;15.49;82.92
72857;BME280;62742;52.136;4.500;2023-06-24T03:47:08;102451.16;;;15.51;82.98
72857;BME280;62742;52.136;4.500;2023-06-24T03:49:37;102454.69;;;15.50;83.25
72857;BME280;62742;52.136;4.500;2023-06-24T03:52:04;102455.59;;;15.48;83.52
72857;BME280;62742;52.136;4.500;2023-06-24T03:54:34;102458.25;;;15.49;83.44
72857;BME280;62742;52.136;4.500;2023-06-24T03:57:01;102466.09;;;15.56;83.31
72857;BME280;62742;52.136;4.500;2023-06-24T03:59:27;102466.97;;;15.58;83.23
72857;BME280;62742;52.136;4.500;2023-06-24T04:01:54;102465.22;;;15.58;83.44
72857;BME280;62742;52.136;4.500;2023-06-24T04:04:20;102477.63;;;15.55;83.84
72857;BME280;62742;52.136;4.500;2023-06-24T04:06:48;102468.69;;;15.63;84.64
72857;BME280;62742;52.136;4.500;2023-06-24T04:09:14;102475.00;;;15.51;85.24
72857;BME280;62742;52.136;4.500;2023-06-24T04:11:41;102467.03;;;15.51;85.76
72857;BME280;62742;52.136;4.500;2023-06-24T04:14:07;102476.72;;;15.56;85.71
72857;BME280;62742;52.136;4.500;2023-06-24T04:16:35;102471.38;;;15.60;86.02
72857;BME280;62742;52.136;4.500;2023-06-24T04:19:02;102478.44;;;15.60;85.62
72857;BME280;62742;52.136;4.500;2023-06-24T04:21:29;102474.00;;;15.63;85.76
72857;BME280;62742;52.136;4.500;2023-06-24T04:23:55;102478.31;;;15.72;86.10
72857;BME280;62742;52.136;4.500;2023-06-24T04:26:22;102468.59;;;15.73;85.82
72857;BME280;62742;52.136;4.500;2023-06-24T04:28:48;102466.66;;;15.90;85.96
72857;BME280;62742;52.136;4.500;2023-06-24T04:31:16;102466.56;;;15.98;86.57
72857;BME280;62742;52.136;4.500;2023-06-24T04:33:42;102463.88;;;16.04;86.36
72857;BME280;62742;52.136;4.500;2023-06-24T04:36:09;102472.63;;;16.09;86.47
72857;BME280;62742;52.136;4.500;2023-06-24T04:38:35;102475.03;;;16.26;87.46
72857;BME280;62742;52.136;4.500;2023-06-24T04:41:02;102475.00;;;16.31;87.95
72857;BME280;62742;52.136;4.500;2023-06-24T04:43:29;102478.41;;;16.40;88.27
72857;BME280;62742;52.136;4.500;2023-06-24T04:45:55;102486.22;;;16.50;88.22
72857;BME280;62742;52.136;4.500;2023-06-24T04:48:23;102481.72;;;16.56;88.16
72857;BME280;62742;52.136;4.500;2023-06-24T04:50:50;102478.16;;;16.59;88.04
72857;BME280;62742;52.136;4.500;2023-06-24T04:53:18;102491.34;;;16.63;88.28
72857;BME280;62742;52.136;4.500;2023-06-24T04:55:44;102484.03;;;16.81;88.33
72857;BME280;62742;52.136;4.500;2023-06-24T04:58:11;102485.69;;;16.91;88.43
72857;BME280;62742;52.136;4.500;2023-06-24T05:00:37;102488.19;;;16.99;88.41
72857;BME280;62742;52.136;4.500;2023-06-24T05:03:03;102495.09;;;17.09;88.61
72857;BME280;62742;52.136;4.500;2023-06-24T05:05:30;102496.72;;;17.19;88.43
72857;BME280;62742;52.136;4.500;2023-06-24T05:07:57;102488.47;;;17.36;88.15
72857;BME280;62742;52.136;4.500;2023-06-24T05:10:23;102489.78;;;17.62;88.89
72857;BME280;62742;52.136;4.500;2023-06-24T05:12:50;102487.22;;;18.04;86.70
72857;BME280;62742;52.136;4.500;2023-06-24T05:15:16;102491.34;;;18.60;84.33
72857;BME280;62742;52.136;4.500;2023-06-24T05:17:43;102484.13;;;19.38;80.91
72857;BME280;62742;52.136;4.500;2023-06-24T05:20:10;102487.31;;;20.17;76.04
72857;BME280;62742;52.136;4.500;2023-06-24T05:22:36;102485.69;;;20.72;72.77
72857;BME280;62742;52.136;4.500;2023-06-24T05:25:03;102493.03;;;21.46;71.15
72857;BME280;62742;52.136;4.500;2023-06-24T05:27:30;102486.66;;;22.00;67.86
72857;BME280;62742;52.136;4.500;2023-06-24T05:29:56;102488.91;;;22.58;65.84
72857;BME280;62742;52.136;4.500;2023-06-24T05:32:23;102482.53;;;23.05;63.64
72857;BME280;62742;52.136;4.500;2023-06-24T05:34:50;102475.28;;;23.50;62.58
72857;BME280;62742;52.136;4.500;2023-06-24T05:37:17;102483.91;;;23.77;60.98
72857;BME280;62742;52.136;4.500;2023-06-24T05:39:43;102485.63;;;24.19;59.88
72857;BME280;62742;52.136;4.500;2023-06-24T05:42:09;102495.38;;;24.60;58.44
72857;BME280;62742;52.136;4.500;2023-06-24T05:44:36;102491.91;;;24.94;57.62
72857;BME280;62742;52.136;4.500;2023-06-24T05:47:03;102498.06;;;25.50;55.91
72857;BME280;62742;52.136;4.500;2023-06-24T05:49:29;102495.22;;;25.87;54.41
72857;BME280;62742;52.136;4.500;2023-06-24T05:51:56;102497.34;;;25.98;53.98
72857;BME280;62742;52.136;4.500;2023-06-24T05:54:23;102508.56;;;26.39;53.18
72857;BME280;62742;52.136;4.500;2023-06-24T05:56:50;102510.81;;;26.31;53.12
72857;BME280;62742;52.136;4.500;2023-06-24T05:59:16;102509.56;;;26.53;52.38
72857;BME280;62742;52.136;4.500;2023-06-24T06:01:43;102498.91;;;26.83;51.28
72857;BME280;62742;52.136;4.500;2023-06-24T06:04:09;102498.50;;;27.05;50.52
72857;BME280;62742;52.136;4.500;2023-06-24T06:06:35;102501.06;;;26.92;50.40
72857;BME280;62742;52.136;4.500;2023-06-24T06:09:03;102505.75;;;27.04;50.54
72857;BME280;62742;52.136;4.500;2023-06-24T06:11:31;102504.25;;;27.45;49.49
72857;BME280;62742;52.136;4.500;2023-06-24T06:13:57;102494.81;;;27.52;48.76
72857;BME280;62742;52.136;4.500;2023-06-24T06:16:24;102488.75;;;27.49;48.92
72857;BME280;62742;52.136;4.500;2023-06-24T06:18:51;102496.25;;;27.43;48.64
72857;BME280;62742;52.136;4.500;2023-06-24T06:21:17;102495.59;;;27.69;47.63
72857;BME280;62742;52.136;4.500;2023-06-24T06:23:44;102498.66;;;27.93;48.75
72857;BME280;62742;52.136;4.500;2023-06-24T06:26:10;102498.41;;;28.39;47.59
72857;BME280;62742;52.136;4.500;2023-06-24T06:28:37;102495.63;;;28.26;47.12
72857;BME280;62742;52.136;4.500;2023-06-24T06:31:03;102495.09;;;28.48;46.20
72857;BME280;62742;52.136;4.500;2023-06-24T06:33:30;102499.22;;;28.68;45.52
72857;BME280;62742;52.136;4.500;2023-06-24T06:35:56;102492.16;;;28.93;45.35
72857;BME280;62742;52.136;4.500;2023-06-24T06:38:22;102491.78;;;28.72;46.29
72857;BME280;62742;52.136;4.500;2023-06-24T06:40:49;102493.06;;;28.94;45.27
72857;BME280;62742;52.136;4.500;2023-06-24T06:43:16;102494.19;;;28.77;46.52
72857;BME280;62742;52.136;4.500;2023-06-24T06:45:42;102498.66;;;29.18;45.62
72857;BME280;62742;52.136;4.500;2023-06-24T06:48:10;102494.75;;;29.22;44.48
72857;BME280;62742;52.136;4.500;2023-06-24T06:50:37;102496.13;;;29.15;45.03
72857;BME280;62742;52.136;4.500;2023-06-24T06:53:03;102499.31;;;29.34;43.96
72857;BME280;62742;52.136;4.500;2023-06-24T06:55:30;102494.91;;;29.06;45.12
72857;BME280;62742;52.136;4.500;2023-06-24T06:57:56;102503.03;;;29.46;44.96
72857;BME280;62742;52.136;4.500;2023-06-24T07:00:23;102506.44;;;28.82;45.65
72857;BME280;62742;52.136;4.500;2023-06-24T07:02:49;102501.81;;;29.24;44.69
72857;BME280;62742;52.136;4.500;2023-06-24T07:05:16;102511.38;;;29.43;44.42
72857;BME280;62742;52.136;4.500;2023-06-24T07:07:43;102504.94;;;29.31;43.64
72857;BME280;62742;52.136;4.500;2023-06-24T07:10:11;102505.94;;;29.43;45.06
72857;BME280;62742;52.136;4.500;2023-06-24T07:12:39;102501.88;;;29.76;43.41
72857;BME280;62742;52.136;4.500;2023-06-24T07:15:06;102492.44;;;29.81;43.86
72857;BME280;62742;52.136;4.500;2023-06-24T07:17:33;102490.78;;;30.05;43.57
72857;BME280;62742;52.136;4.500;2023-06-24T07:20:00;102484.75;;;29.88;44.56
72857;BME280;62742;52.136;4.500;2023-06-24T07:22:26;102486.34;;;30.03;43.34
72857;BME280;62742;52.136;4.500;2023-06-24T07:24:53;102493.72;;;29.76;44.07
72857;BME280;62742;52.136;4.500;2023-06-24T07:27:19;102489.59;;;30.09;43.85
72857;BME280;62742;52.136;4.500;2023-06-24T07:29:46;102491.00;;;30.14;43.16
72857;BME280;62742;52.136;4.500;2023-06-24T07:32:12;102493.16;;;30.22;43.95
72857;BME280;62742;52.136;4.500;2023-06-24T07:34:39;102504.44;;;29.39;44.67
72857;BME280;62742;52.136;4.500;2023-06-24T07:37:05;102494.03;;;29.58;44.83
72857;BME280;62742;52.136;4.500;2023-06-24T07:39:32;102490.28;;;29.87;43.62
72857;BME280;62742;52.136;4.500;2023-06-24T07:41:58;102494.69;;;30.00;43.13
72857;BME280;62742;52.136;4.500;2023-06-24T07:44:25;102491.31;;;29.58;45.00
72857;BME280;62742;52.136;4.500;2023-06-24T07:46:51;102490.47;;;29.71;44.74
72857;BME280;62742;52.136;4.500;2023-06-24T07:49:18;102504.59;;;30.01;44.80
72857;BME280;62742;52.136;4.500;2023-06-24T07:51:45;102495.13;;;30.07;44.36
72857;BME280;62742;52.136;4.500;2023-06-24T07:54:12;102495.09;;;30.20;43.42
72857;BME280;62742;52.136;4.500;2023-06-24T07:56:40;102502.78;;;30.26;44.20
72857;BME280;62742;52.136;4.500;2023-06-24T07:59:06;102500.06;;;30.26;44.67
72857;BME280;62742;52.136;4.500;2023-06-24T08:01:32;102503.31;;;30.31;44.32
72857;BME280;62742;52.136;4.500;2023-06-24T08:03:59;102500.94;;;30.27;43.54
72857;BME280;62742;52.136;4.500;2023-06-24T08:06:25;102502.44;;;30.68;42.03
72857;BME280;62742;52.136;4.500;2023-06-24T08:08:53;102500.66;;;30.80;43.08
72857;BME280;62742;52.136;4.500;2023-06-24T08:11:19;102499.06;;;30.53;42.59
72857;BME280;62742;52.136;4.500;2023-06-24T08:13:47;102499.44;;;30.35;44.30
72857;BME280;62742;52.136;4.500;2023-06-24T08:16:17;102497.38;;;30.39;43.73
72857;BME280;62742;52.136;4.500;2023-06-24T08:18:46;102500.34;;;30.47;43.57
72857;BME280;62742;52.136;4.500;2023-06-24T08:21:13;102504.13;;;30.57;43.71
72857;BME280;62742;52.136;4.500;2023-06-24T08:23:40;102494.69;;;30.63;42.31
72857;BME280;62742;52.136;4.500;2023-06-24T08:26:07;102495.19;;;30.31;43.61
72857;BME280;62742;52.136;4.500;2023-06-24T08:28:35;102494.22;;;30.19;44.64
72857;BME280;62742;52.136;4.500;2023-06-24T08:31:02;102495.34;;;30.54;43.83
72857;BME280;62742;52.136;4.500;2023-06-24T08:33:29;102496.16;;;30.43;44.59
72857;BME280;62742;52.136;4.500;2023-06-24T08:35:55;102498.13;;;30.41;44.13
72857;BME280;62742;52.136;4.500;2023-06-24T08:38:22;102506.69;;;30.72;42.65
72857;BME280;62742;52.136;4.500;2023-06-24T08:40:49;102498.31;;;29.88;45.80
72857;BME280;62742;52.136;4.500;2023-06-24T08:43:16;102499.97;;;30.41;44.42
72857;BME280;62742;52.136;4.500;2023-06-24T08:45:43;102497.63;;;30.60;42.67
72857;BME280;62742;52.136;4.500;2023-06-24T08:48:11;102495.94;;;30.70;44.09
72857;BME280;62742;52.136;4.500;2023-06-24T08:50:44;102482.84;;;30.27;44.27
72857;BME280;62742;52.136;4.500;2023-06-24T08:53:18;102490.81;;;30.54;42.05
72857;BME280;62742;52.136;4.500;2023-06-24T08:55:49;102493.03;;;30.85;42.96
72857;BME280;62742;52.136;4.500;2023-06-24T08:58:20;102481.19;;;31.10;42.67
72857;BME280;62742;52.136;4.500;2023-06-24T09:00:46;102490.97;;;31.12;41.39
72857;BME280;62742;52.136;4.500;2023-06-24T09:03:13;102479.94;;;31.38;42.19
72857;BME280;62742;52.136;4.500;2023-06-24T09:05:39;102485.66;;;30.87;42.77
72857;BME280;62742;52.136;4.500;2023-06-24T09:08:06;102483.88;;;31.45;42.92
72857;BME280;62742;52.136;4.500;2023-06-24T09:10:36;102490.59;;;30.93;42.78
72857;BME280;62742;52.136;4.500;2023-06-24T09:13:05;102489.69;;;31.05;42.86
72857;BME280;62742;52.136;4.500;2023-06-24T09:15:33;102476.72;;;31.33;42.08
72857;BME280;62742;52.136;4.500;2023-06-24T09:18:01;102486.22;;;31.39;41.83
72857;BME280;62742;52.136;4.500;2023-06-24T09:20:30;102477.75;;;31.55;40.65
72857;BME280;62742;52.136;4.500;2023-06-24T09:23:02;102485.31;;;31.27;42.20
72857;BME280;62742;52.136;4.500;2023-06-24T09:25:31;102491.03;;;31.35;41.83
72857;BME280;62742;52.136;4.500;2023-06-24T09:28:00;102487.78;;;31.88;41.49
72857;BME280;62742;52.136;4.500;2023-06-24T09:30:28;102483.47;;;31.97;40.39
72857;BME280;62742;52.136;4.500;2023-06-24T09:32:56;102477.28;;;32.17;40.63
72857;BME280;62742;52.136;4.500;2023-06-24T09:35:24;102482.22;;;31.20;41.55
72857;BME280;62742;52.136;4.500;2023-06-24T09:37:55;102479.53;;;31.43;40.77
72857;BME280;62742;52.136;4.500;2023-06-24T09:40:25;102488.41;;;31.69;40.87
72857;BME280;62742;52.136;4.500;2023-06-24T09:42:56;102482.97;;;32.03;39.74
72857;BME280;62742;52.136;4.500;2023-06-24T09:45:26;102474.75;;;32.37;38.37
72857;BME280;62742;52.136;4.500;2023-06-24T09:47:55;102473.34;;;32.10;39.96
72857;BME280;62742;52.136;4.500;2023-06-24T09:50:23;102465.91;;;32.23;39.18
72857;BME280;62742;52.136;4.500;2023-06-24T09:52:52;102472.03;;;32.37;39.58
72857;BME280;62742;52.136;4.500;2023-06-24T09:55:23;102470.78;;;32.64;38.17
72857;BME280;62742;52.136;4.500;2023-06-24T09:57:51;102467.19;;;32.08;39.07
72857;BME280;62742;52.136;4.500;2023-06-24T10:00:21;102468.91;;;32.64;38.71
72857;BME280;62742;52.136;4.500;2023-06-24T10:02:49;102469.03;;;32.95;37.97
72857;BME280;62742;52.136;4.500;2023-06-24T10:05:15;102469.69;;;33.20;37.85
72857;BME280;62742;52.136;4.500;2023-06-24T10:07:43;102466.91;;;32.98;37.75
72857;BME280;62742;52.136;4.500;2023-06-24T10:10:11;102463.66;;;33.05;37.39
72857;BME280;62742;52.136;4.500;2023-06-24T10:12:38;102451.19;;;32.58;38.10
72857;BME280;62742;52.136;4.500;2023-06-24T10:15:05;102460.78;;;32.85;38.89
72857;BME280;62742;52.136;4.500;2023-06-24T10:17:32;102458.00;;;32.96;38.65
72857;BME280;62742;52.136;4.500;2023-06-24T10:20:03;102455.03;;;33.42;36.85
72857;BME280;62742;52.136;4.500;2023-06-24T10:22:32;102456.47;;;33.46;37.81
72857;BME280;62742;52.136;4.500;2023-06-24T10:25:05;102454.03;;;33.43;37.84
72857;BME280;62742;52.136;4.500;2023-06-24T10:27:39;102453.31;;;32.55;38.79
72857;BME280;62742;52.136;4.500;2023-06-24T10:30:08;102445.31;;;33.07;37.63
72857;BME280;62742;52.136;4.500;2023-06-24T10:32:44;102442.59;;;33.49;35.97
72857;BME280;62742;52.136;4.500;2023-06-24T10:35:23;102435.13;;;33.51;36.30
72857;BME280;62742;52.136;4.500;2023-06-24T10:37:59;102438.88;;;33.50;36.25
72857;BME280;62742;52.136;4.500;2023-06-24T10:40:39;102440.63;;;33.61;35.96
72857;BME280;62742;52.136;4.500;2023-06-24T10:45:50;102439.19;;;33.57;36.85
72857;BME280;62742;52.136;4.500;2023-06-24T10:48:18;102433.44;;;33.81;36.90
72857;BME280;62742;52.136;4.500;2023-06-24T10:50:49;102438.09;;;34.09;33.25
72857;BME280;62742;52.136;4.500;2023-06-24T10:53:16;102444.88;;;34.15;35.53
72857;BME280;62742;52.136;4.500;2023-06-24T10:55:44;102437.75;;;34.24;35.35
72857;BME280;62742;52.136;4.500;2023-06-24T10:58:14;102440.94;;;34.58;34.17
72857;BME280;62742;52.136;4.500;2023-06-24T11:00:42;102437.88;;;33.82;36.62
72857;BME280;62742;52.136;4.500;2023-06-24T11:03:16;102426.13;;;33.29;36.80
72857;BME280;62742;52.136;4.500;2023-06-24T11:05:48;102427.50;;;33.03;36.63
72857;BME280;62742;52.136;4.500;2023-06-24T11:08:15;102432.53;;;33.70;34.83
72857;BME280;62742;52.136;4.500;2023-06-24T11:10:43;102427.28;;;33.88;35.40
72857;BME280;62742;52.136;4.500;2023-06-24T11:13:11;102429.06;;;34.19;35.52
72857;BME280;62742;52.136;4.500;2023-06-24T11:15:39;102435.13;;;33.72;34.93
72857;BME280;62742;52.136;4.500;2023-06-24T11:18:09;102429.63;;;34.13;34.88
72857;BME280;62742;52.136;4.500;2023-06-24T11:20:39;102420.06;;;34.28;34.87
72857;BME280;62742;52.136;4.500;2023-06-24T11:23:07;102408.69;;;34.13;35.17
72857;BME280;62742;52.136;4.500;2023-06-24T11:25:42;102416.22;;;33.59;35.88
72857;BME280;62742;52.136;4.500;2023-06-24T11:28:17;102422.38;;;33.82;35.55
72857;BME280;62742;52.136;4.500;2023-06-24T11:30:44;102415.41;;;33.38;36.25
72857;BME280;62742;52.136;4.500;2023-06-24T11:33:11;102418.91;;;33.49;38.24
72857;BME280;62742;52.136;4.500;2023-06-24T11:35:37;102414.81;;;33.65;38.17
72857;BME280;62742;52.136;4.500;2023-06-24T11:38:04;102422.84;;;33.35;37.90
72857;BME280;62742;52.136;4.500;2023-06-24T11:40:34;102415.06;;;33.10;39.03
72857;BME280;62742;52.136;4.500;2023-06-24T11:43:01;102413.47;;;32.54;40.14
72857;BME280;62742;52.136;4.500;2023-06-24T11:45:28;102409.34;;;32.71;39.77
72857;BME280;62742;52.136;4.500;2023-06-24T11:48:02;102410.84;;;33.17;39.12
72857;BME280;62742;52.136;4.500;2023-06-24T11:50:35;102413.97;;;33.12;38.88
72857;BME280;62742;52.136;4.500;2023-06-24T11:53:09;102408.03;;;31.99;40.51
72857;BME280;62742;52.136;4.500;2023-06-24T11:55:35;102411.53;;;32.44;40.91
72857;BME280;62742;52.136;4.500;2023-06-24T11:58:03;102407.44;;;32.83;40.58
72857;BME280;62742;52.136;4.500;2023-06-24T12:00:38;102410.56;;;33.20;40.19
72857;BME280;62742;52.136;4.500;2023-06-24T12:03:11;102413.22;;;33.62;39.53
72857;BME280;62742;52.136;4.500;2023-06-24T12:05:38;102396.34;;;33.68;37.47
72857;BME280;62742;52.136;4.500;2023-06-24T12:08:11;102402.59;;;33.28;37.95
72857;BME280;62742;52.136;4.500;2023-06-24T12:10:43;102401.94;;;32.94;39.45
72857;BME280;62742;52.136;4.500;2023-06-24T12:13:11;102397.59;;;33.12;39.19
72857;BME280;62742;52.136;4.500;2023-06-24T12:15:37;102404.91;;;32.26;39.64
72857;BME280;62742;52.136;4.500;2023-06-24T12:18:04;102405.44;;;31.97;40.44
72857;BME280;62742;52.136;4.500;2023-06-24T12:20:31;102412.38;;;32.01;41.00
72857;BME280;62742;52.136;4.500;2023-06-24T12:22:58;102407.06;;;32.43;41.25
72857;BME280;62742;52.136;4.500;2023-06-24T12:25:25;102407.41;;;32.18;41.37
72857;BME280;62742;52.136;4.500;2023-06-24T12:27:52;102410.06;;;32.08;40.43
72857;BME280;62742;52.136;4.500;2023-06-24T12:30:18;102401.13;;;31.83;41.20
72857;BME280;62742;52.136;4.500;2023-06-24T12:32:46;102397.16;;;31.99;41.39
72857;BME280;62742;52.136;4.500;2023-06-24T12:35:12;102389.50;;;32.15;41.03
72857;BME280;62742;52.136;4.500;2023-06-24T12:37:39;102389.97;;;32.53;41.42
72857;BME280;62742;52.136;4.500;2023-06-24T12:40:06;102391.09;;;33.25;39.56
72857;BME280;62742;52.136;4.500;2023-06-24T12:42:33;102399.19;;;33.36;39.49
72857;BME280;62742;52.136;4.500;2023-06-24T12:45:00;102385.88;;;32.58;40.96
72857;BME280;62742;52.136;4.500;2023-06-24T12:47:26;102391.56;;;32.67;40.02
72857;BME280;62742;52.136;4.500;2023-06-24T12:49:53;102387.78;;;32.03;41.87
72857;BME280;62742;52.136;4.500;2023-06-24T12:52:19;102385.84;;;32.37;39.70
72857;BME280;62742;52.136;4.500;2023-06-24T12:54:46;102384.22;;;32.35;40.64
72857;BME280;62742;52.136;4.500;2023-06-24T12:57:12;102383.41;;;32.55;39.90
72857;BME280;62742;52.136;4.500;2023-06-24T12:59:40;102393.72;;;32.08;41.05
72857;BME280;62742;52.136;4.500;2023-06-24T13:02:07;102389.00;;;31.99;40.42
72857;BME280;62742;52.136;4.500;2023-06-24T13:04:34;102391.69;;;32.21;40.89
72857;BME280;62742;52.136;4.500;2023-06-24T13:07:00;102398.16;;;32.09;41.10
72857;BME280;62742;52.136;4.500;2023-06-24T13:09:27;102389.50;;;32.15;40.64
72857;BME280;62742;52.136;4.500;2023-06-24T13:11:53;102393.19;;;32.25;40.14
72857;BME280;62742;52.136;4.500;2023-06-24T13:14:20;102386.31;;;32.42;41.12
72857;BME280;62742;52.136;4.500;2023-06-24T13:16:46;102386.56;;;33.14;40.37